Time,TemperatureF,DewpointF,PressureIn,WindDirection,WindDirectionDegrees,WindSpeedMPH,WindSpeedGustMPH,Humidity,HourlyPrecipIn,Conditions,Clouds,dailyrainin,SoftwareType,DateUTC
2013-03-01 00:00:00,35.8,27.6,29.84,WSW,248,0.2,0.2,72,0.00,,,0.00,WUHU216HW,2013-03-01 05:00:00,
2013-03-01 00:05:00,35.8,27.6,29.84,WSW,248,0.2,0.2,72,0.00,,,0.00,WUHU216HW,2013-03-01 05:05:00,
2013-03-01 00:06:00,35.8,27.6,29.84,WSW,248,0.2,0.2,72,0.00,,,0.00,WUHU216HW,2013-03-01 05:06:00,
2013-03-01 00:30:00,35.3,27.5,29.85,SW,225,0.4,0.4,73,0.00,,,0.00,WUHU216HW,2013-03-01 05:30:00,
2013-03-01 00:35:00,35.3,27.5,29.85,SW,225,0.4,0.4,73,0.00,,,0.00,WUHU216HW,2013-03-01 05:35:00,
2013-03-01 01:00:00,35.1,27.5,29.85,WSW,248,0.2,0.2,74,0.00,,,0.00,WUHU216HW,2013-03-01 06:00:00,
2013-03-01 01:05:00,35.1,27.5,29.85,WSW,248,0.2,0.2,74,0.00,,,0.00,WUHU216HW,2013-03-01 06:05:00,
2013-03-01 01:30:00,35.5,27.9,29.85,West,270,0.2,0.2,74,0.00,,,0.00,WUHU216HW,2013-03-01 06:30:00,
2013-03-01 01:35:00,35.5,27.9,29.85,West,270,0.2,0.2,74,0.00,,,0.00,WUHU216HW,2013-03-01 06:35:00,
2013-03-01 02:00:00,35.8,28.0,29.85,West,270,0.2,0.2,73,0.00,,,0.00,WUHU216HW,2013-03-01 07:00:00,
2013-03-01 02:05:00,35.8,28.0,29.85,West,270,0.2,0.2,73,0.00,,,0.00,WUHU216HW,2013-03-01 07:05:00,
2013-03-01 02:30:00,35.6,27.8,29.85,WSW,248,0.4,0.4,73,0.00,,,0.00,WUHU216HW,2013-03-01 07:30:00,
2013-03-01 02:35:00,35.6,27.8,29.85,WSW,248,0.4,0.4,73,0.00,,,0.00,WUHU216HW,2013-03-01 07:35:00,
2013-03-01 03:00:00,35.8,28.0,29.85,WSW,248,0.2,0.2,73,0.00,,,0.00,WUHU216HW,2013-03-01 08:00:00,
2013-03-01 03:05:00,35.8,28.0,29.85,WSW,248,0.2,0.2,73,0.00,,,0.00,WUHU216HW,2013-03-01 08:05:00,
2013-03-01 03:30:00,34.9,26.7,29.85,WSW,248,0.0,0.0,72,0.00,,,0.00,WUHU216HW,2013-03-01 08:30:00,
2013-03-01 03:35:00,34.9,26.7,29.85,WSW,248,0.0,0.0,72,0.00,,,0.00,WUHU216HW,2013-03-01 08:35:00,
2013-03-01 04:00:00,33.1,25.7,29.84,WSW,248,0.2,0.2,74,0.00,,,0.00,WUHU216HW,2013-03-01 09:00:00,
2013-03-01 04:05:00,33.1,25.7,29.84,WSW,248,0.2,0.2,74,0.00,,,0.00,WUHU216HW,2013-03-01 09:05:00,
2013-03-01 04:30:00,32.8,26.0,29.85,WSW,248,0.0,0.0,76,0.00,,,0.00,WUHU216HW,2013-03-01 09:30:00,
2013-03-01 04:35:00,32.8,26.0,29.85,WSW,248,0.0,0.0,76,0.00,,,0.00,WUHU216HW,2013-03-01 09:35:00,
2013-03-01 05:00:00,32.8,26.3,29.86,West,270,0.7,0.7,77,0.00,,,0.00,WUHU216HW,2013-03-01 10:00:00,
2013-03-01 05:05:00,32.8,26.3,29.86,West,270,0.7,0.7,77,0.00,,,0.00,WUHU216HW,2013-03-01 10:05:00,
2013-03-01 05:30:00,32.2,26.2,29.85,SW,225,1.1,1.1,78,0.00,,,0.00,WUHU216HW,2013-03-01 10:30:00,
2013-03-01 05:35:00,32.2,26.2,29.85,SW,225,1.1,1.1,78,0.00,,,0.00,WUHU216HW,2013-03-01 10:35:00,
2013-03-01 06:00:00,31.3,25.3,29.86,SW,225,0.2,0.2,78,0.00,,,0.00,WUHU216HW,2013-03-01 11:00:00,
2013-03-01 06:05:00,31.3,25.3,29.86,SW,225,0.2,0.2,78,0.00,,,0.00,WUHU216HW,2013-03-01 11:05:00,
2013-03-01 06:30:00,30.8,25.0,29.86,WSW,248,0.2,0.2,79,0.00,,,0.00,WUHU216HW,2013-03-01 11:30:00,
2013-03-01 06:35:00,30.8,25.0,29.86,WSW,248,0.2,0.2,79,0.00,,,0.00,WUHU216HW,2013-03-01 11:35:00,
2013-03-01 07:00:00,30.8,25.4,29.87,West,270,0.2,0.2,80,0.00,,,0.00,WUHU216HW,2013-03-01 12:00:00,
2013-03-01 07:05:00,30.8,25.4,29.87,West,270,0.2,0.2,80,0.00,,,0.00,WUHU216HW,2013-03-01 12:05:00,
2013-03-01 07:30:00,32.8,27.5,29.88,West,270,0.2,0.2,81,0.00,,,0.00,WUHU216HW,2013-03-01 12:30:00,
2013-03-01 07:35:00,32.8,27.5,29.88,West,270,0.2,0.2,81,0.00,,,0.00,WUHU216HW,2013-03-01 12:35:00,
2013-03-01 08:00:00,34.2,28.3,29.88,SW,225,1.1,1.1,79,0.00,,,0.00,WUHU216HW,2013-03-01 13:00:00,
2013-03-01 08:05:00,34.2,28.3,29.88,SW,225,1.1,1.1,79,0.00,,,0.00,WUHU216HW,2013-03-01 13:05:00,
2013-03-01 08:30:00,38.0,30.8,29.88,SW,225,0.4,0.4,75,0.00,,,0.00,WUHU216HW,2013-03-01 13:30:00,
2013-03-01 08:35:00,38.0,30.8,29.88,SW,225,0.4,0.4,75,0.00,,,0.00,WUHU216HW,2013-03-01 13:35:00,
2013-03-01 09:00:00,41.4,31.7,29.89,WNW,293,1.1,1.1,68,0.00,,,0.00,WUHU216HW,2013-03-01 14:00:00,
2013-03-01 09:05:00,41.4,31.7,29.89,WNW,293,1.1,1.1,68,0.00,,,0.00,WUHU216HW,2013-03-01 14:05:00,
2013-03-01 09:30:00,44.1,32.0,29.89,NNW,338,1.8,1.8,62,0.00,,,0.00,WUHU216HW,2013-03-01 14:30:00,
2013-03-01 09:35:00,44.1,32.0,29.89,NNW,338,1.8,1.8,62,0.00,,,0.00,WUHU216HW,2013-03-01 14:35:00,
2013-03-01 10:00:00,46.3,31.8,29.89,NW,315,4.3,4.3,57,0.00,,,0.00,WUHU216HW,2013-03-01 15:00:00,
2013-03-01 10:05:00,46.3,31.8,29.89,NW,315,4.3,4.3,57,0.00,,,0.00,WUHU216HW,2013-03-01 15:05:00,
2013-03-01 10:30:00,47.9,31.1,29.88,NW,315,2.5,2.5,52,0.00,,,0.00,WUHU216HW,2013-03-01 15:30:00,
2013-03-01 10:35:00,47.9,31.1,29.88,NW,315,2.5,2.5,52,0.00,,,0.00,WUHU216HW,2013-03-01 15:35:00,
2013-03-01 11:30:00,50.0,31.2,29.88,SSE,158,1.1,1.1,48,0.00,,,0.00,WUHU216HW,2013-03-01 16:30:00,
2013-03-01 11:35:00,50.0,31.2,29.88,SSE,158,1.1,1.1,48,0.00,,,0.00,WUHU216HW,2013-03-01 16:35:00,
2013-03-01 12:00:00,51.5,30.7,29.86,NNE,23,0.7,0.7,45,0.00,,,0.00,WUHU216HW,2013-03-01 17:00:00,
2013-03-01 15:30:00,51.8,30.5,29.82,NNW,338,2.5,2.5,44,0.00,,,0.00,WUHU216HW,2013-03-01 20:30:00,
2013-03-01 15:35:00,51.7,30.9,29.82,NNW,338,4.0,4.0,45,0.00,,,0.00,WUHU216HW,2013-03-01 20:35:00,
2013-03-01 15:40:00,51.7,30.9,29.82,NNW,338,4.0,4.0,45,0.00,,,0.00,WUHU216HW,2013-03-01 20:40:00,
2013-03-01 16:00:00,50.8,30.6,29.83,WSW,248,1.1,1.1,46,0.00,,,0.00,WUHU216HW,2013-03-01 21:00:00,
2013-03-01 16:05:00,50.8,30.6,29.83,WSW,248,1.1,1.1,46,0.00,,,0.00,WUHU216HW,2013-03-01 21:05:00,
2013-03-01 16:30:00,50.4,31.4,29.83,NNW,338,1.8,1.8,48,0.00,,,0.00,WUHU216HW,2013-03-01 21:30:00,
2013-03-01 16:35:00,50.4,31.4,29.83,NNW,338,1.8,1.8,48,0.00,,,0.00,WUHU216HW,2013-03-01 21:35:00,
2013-03-01 17:00:00,50.4,30.9,29.84,WNW,293,1.8,1.8,47,0.00,,,0.00,WUHU216HW,2013-03-01 22:00:00,
2013-03-01 17:05:00,50.4,30.9,29.84,WNW,293,1.8,1.8,47,0.00,,,0.00,WUHU216HW,2013-03-01 22:05:00,
2013-03-01 17:30:00,49.7,30.8,29.85,NW,315,2.5,2.5,48,0.00,,,0.00,WUHU216HW,2013-03-01 22:30:00,
2013-03-01 17:35:00,49.7,30.8,29.85,NW,315,2.5,2.5,48,0.00,,,0.00,WUHU216HW,2013-03-01 22:35:00,
2013-03-01 18:00:00,49.0,31.6,29.86,NW,315,0.7,0.7,51,0.00,,,0.00,WUHU216HW,2013-03-01 23:00:00,
2013-03-01 18:05:00,49.0,31.6,29.86,NW,315,0.7,0.7,51,0.00,,,0.00,WUHU216HW,2013-03-01 23:05:00,
2013-03-01 18:30:00,48.1,31.2,29.87,West,270,0.2,0.2,52,0.00,,,0.00,WUHU216HW,2013-03-01 23:30:00,
2013-03-01 18:35:00,48.1,31.2,29.87,West,270,0.2,0.2,52,0.00,,,0.00,WUHU216HW,2013-03-01 23:35:00,
2013-03-01 19:00:00,47.3,31.4,29.88,WNW,293,0.4,0.4,54,0.00,,,0.00,WUHU216HW,2013-03-02 00:00:00,
2013-03-01 19:05:00,47.3,31.4,29.88,WNW,293,0.4,0.4,54,0.00,,,0.00,WUHU216HW,2013-03-02 00:05:00,
2013-03-01 20:00:00,46.4,32.0,29.89,NNW,338,0.4,0.4,57,0.00,,,0.00,WUHU216HW,2013-03-02 01:00:00,
2013-03-01 20:05:00,46.4,32.0,29.89,NNW,338,0.4,0.4,57,0.00,,,0.00,WUHU216HW,2013-03-02 01:05:00,
2013-03-01 20:30:00,46.1,31.6,29.89,SW,225,0.0,0.0,57,0.00,,,0.00,WUHU216HW,2013-03-02 01:30:00,
2013-03-01 20:35:00,46.1,31.6,29.89,SW,225,0.0,0.0,57,0.00,,,0.00,WUHU216HW,2013-03-02 01:35:00,
2013-03-01 21:00:00,45.4,31.0,29.89,West,270,0.0,0.0,57,0.00,,,0.00,WUHU216HW,2013-03-02 02:00:00,
2013-03-01 21:05:00,45.4,31.0,29.89,West,270,0.0,0.0,57,0.00,,,0.00,WUHU216HW,2013-03-02 02:05:00,
2013-03-01 21:30:00,45.0,31.2,29.90,West,270,0.4,0.4,58,0.00,,,0.00,WUHU216HW,2013-03-02 02:30:00,
2013-03-01 21:35:00,45.0,31.2,29.90,West,270,0.4,0.4,58,0.00,,,0.00,WUHU216HW,2013-03-02 02:35:00,
2013-03-01 22:00:00,44.6,31.2,29.90,WSW,248,0.4,0.4,59,0.00,,,0.00,WUHU216HW,2013-03-02 03:00:00,
2013-03-01 22:05:00,44.6,31.2,29.90,WSW,248,0.4,0.4,59,0.00,,,0.00,WUHU216HW,2013-03-02 03:05:00,
2013-03-01 22:30:00,44.3,30.9,29.90,NW,315,0.2,0.2,59,0.00,,,0.00,WUHU216HW,2013-03-02 03:30:00,
2013-03-01 22:35:00,44.3,30.9,29.90,NW,315,0.2,0.2,59,0.00,,,0.00,WUHU216HW,2013-03-02 03:35:00,
2013-03-01 23:00:00,44.1,31.1,29.89,NW,315,0.2,0.2,60,0.00,,,0.00,WUHU216HW,2013-03-02 04:00:00,
2013-03-01 23:05:00,44.1,31.1,29.89,NW,315,0.2,0.2,60,0.00,,,0.00,WUHU216HW,2013-03-02 04:05:00,